createdAt,value
2023-03-30T00:01:15.387Z,14.36
2023-03-30T00:03:44.902Z,14.45
2023-03-30T00:06:14.801Z,14.35
2023-03-30T00:08:42.666Z,14.45
2023-03-30T00:11:13.776Z,14.52
2023-03-30T00:13:41.580Z,14.52
2023-03-30T00:16:12.698Z,14.41
2023-03-30T00:18:40.534Z,14.32
2023-03-30T00:21:11.277Z,14.53
2023-03-30T00:23:39.622Z,14.26
2023-03-30T00:26:08.305Z,14.32
2023-03-30T00:28:35.848Z,14.29
2023-03-30T00:31:03.403Z,14.15
2023-03-30T00:33:44.786Z,14.09
2023-03-30T00:36:14.028Z,13.90
2023-03-30T00:38:41.530Z,13.81
2023-03-30T00:41:09.473Z,13.65
2023-03-30T00:43:59.471Z,13.61
2023-03-30T00:46:27.202Z,13.61
2023-03-30T00:49:00.029Z,13.65
2023-03-30T00:51:28.878Z,13.73
2023-03-30T00:54:12.958Z,13.91
2023-03-30T00:56:40.812Z,14.01
2023-03-30T00:59:09.252Z,14.13
2023-03-30T01:01:39.628Z,14.03
2023-03-30T01:04:08.730Z,14.04
2023-03-30T01:06:37.010Z,14.13
2023-03-30T01:09:04.405Z,14.06
2023-03-30T01:11:31.796Z,14.15
2023-03-30T01:14:03.499Z,14.06
2023-03-30T01:16:38.480Z,13.98
2023-03-30T01:19:24.358Z,13.98
2023-03-30T01:22:34.705Z,13.80
2023-03-30T01:25:15.285Z,13.89
2023-03-30T01:28:19.794Z,13.94
2023-03-30T01:31:20.472Z,13.99
2023-03-30T01:34:27.951Z,13.92
2023-03-30T01:38:01.664Z,13.96
2023-03-30T01:41:02.059Z,13.83
2023-03-30T01:43:52.682Z,13.83
2023-03-30T01:46:37.546Z,13.84
2023-03-30T01:49:36.725Z,14.07
2023-03-30T01:52:15.564Z,14.11
2023-03-30T01:55:01.552Z,14.14
2023-03-30T01:57:50.182Z,14.14
2023-03-30T02:00:22.572Z,14.29
2023-03-30T02:02:56.370Z,14.45
2023-03-30T02:05:24.727Z,14.32
2023-03-30T02:08:03.595Z,14.17
2023-03-30T02:10:33.977Z,14.05
2023-03-30T02:13:01.456Z,13.96
2023-03-30T02:15:46.436Z,13.81
2023-03-30T02:18:13.735Z,13.79
2023-03-30T02:20:42.650Z,13.77
2023-03-30T02:23:10.053Z,13.96
2023-03-30T02:25:38.649Z,14.27
2023-03-30T02:28:08.259Z,14.33
2023-03-30T02:30:40.504Z,14.17
2023-03-30T02:33:12.967Z,14.19
2023-03-30T02:36:07.138Z,14.12
2023-03-30T02:39:18.542Z,14.12
2023-03-30T02:42:20.510Z,14.09
2023-03-30T02:45:00.117Z,14.10
2023-03-30T02:48:06.120Z,14.19
2023-03-30T02:50:34.721Z,14.20
2023-03-30T02:53:23.443Z,14.18
2023-03-30T02:55:54.755Z,14.19
2023-03-30T02:58:30.942Z,13.99
2023-03-30T03:01:13.512Z,14.03
2023-03-30T03:03:45.772Z,13.88
2023-03-30T03:06:14.901Z,13.76
2023-03-30T03:08:45.092Z,13.77
2023-03-30T03:11:12.759Z,13.79
2023-03-30T03:13:40.684Z,13.72
2023-03-30T03:16:13.737Z,13.73
2023-03-30T03:18:41.893Z,13.92
2023-03-30T03:21:10.104Z,14.45
2023-03-30T03:23:37.599Z,14.14
2023-03-30T03:26:06.723Z,13.93
2023-03-30T03:28:34.809Z,14.06
2023-03-30T03:31:02.985Z,13.94
2023-03-30T03:33:32.048Z,13.88
2023-03-30T03:36:00.551Z,13.97
2023-03-30T03:38:28.395Z,13.90
2023-03-30T03:40:58.319Z,14.02
2023-03-30T03:43:26.160Z,14.18
2023-03-30T03:45:53.939Z,14.10
2023-03-30T03:48:24.084Z,14.12
2023-03-30T03:50:57.247Z,14.01
2023-03-30T03:53:27.682Z,13.74
2023-03-30T03:55:55.292Z,13.55
2023-03-30T03:58:22.954Z,13.37
2023-03-30T04:00:50.540Z,13.21
2023-03-30T04:03:18.178Z,13.11
2023-03-30T04:05:45.638Z,13.10
2023-03-30T04:08:13.010Z,13.13
2023-03-30T04:10:42.178Z,13.07
2023-03-30T04:13:09.937Z,13.03
2023-03-30T04:15:37.450Z,13.13
2023-03-30T04:18:05.430Z,13.09
2023-03-30T04:20:32.927Z,12.97
2023-03-30T04:23:01.872Z,12.86
2023-03-30T04:25:29.421Z,12.79
2023-03-30T04:27:57.406Z,12.67
2023-03-30T04:30:24.903Z,12.58
2023-03-30T04:33:02.683Z,12.57
2023-03-30T04:35:32.558Z,12.56
2023-03-30T04:38:02.197Z,12.66
2023-03-30T04:40:30.178Z,12.65
2023-03-30T04:43:02.787Z,12.68
2023-03-30T04:45:31.333Z,12.64
2023-03-30T04:47:59.126Z,12.64
2023-03-30T04:50:26.693Z,12.64
2023-03-30T04:52:54.015Z,12.73
2023-03-30T04:55:21.435Z,12.70
2023-03-30T04:57:48.891Z,12.75
2023-03-30T05:00:17.528Z,12.79
2023-03-30T05:02:45.022Z,12.73
2023-03-30T05:05:12.108Z,12.66
2023-03-30T05:07:39.481Z,12.56
2023-03-30T05:10:08.011Z,12.58
2023-03-30T05:12:35.530Z,12.63
2023-03-30T05:15:03.201Z,12.61
2023-03-30T05:17:34.115Z,12.73
2023-03-30T05:20:02.449Z,12.71
2023-03-30T05:22:29.802Z,12.68
2023-03-30T05:24:57.344Z,12.71
2023-03-30T05:27:24.742Z,12.75
2023-03-30T05:29:52.106Z,12.74
2023-03-30T05:32:19.508Z,12.95
2023-03-30T05:34:47.110Z,13.38
2023-03-30T05:37:14.822Z,13.22
2023-03-30T05:39:42.581Z,12.90
2023-03-30T05:42:11.703Z,12.87
2023-03-30T05:44:39.085Z,13.01
2023-03-30T05:47:06.568Z,13.16
2023-03-30T05:49:33.933Z,13.41
2023-03-30T05:52:01.299Z,13.42
2023-03-30T05:54:28.817Z,13.40
2023-03-30T05:56:56.253Z,13.38
2023-03-30T05:59:23.967Z,13.27
2023-03-30T06:01:51.457Z,13.24
2023-03-30T06:04:18.902Z,13.20
2023-03-30T06:06:46.566Z,13.20
2023-03-30T06:09:13.858Z,13.10
2023-03-30T06:11:41.493Z,13.10
2023-03-30T06:14:09.987Z,13.06
2023-03-30T06:16:37.210Z,12.98
2023-03-30T06:19:04.598Z,13.01
2023-03-30T06:21:32.067Z,12.95
2023-03-30T06:23:59.184Z,12.86
2023-03-30T06:26:26.564Z,12.77
2023-03-30T06:28:53.928Z,12.70
2023-03-30T06:31:21.341Z,12.71
2023-03-30T06:33:50.223Z,12.75
2023-03-30T06:36:17.774Z,12.67
2023-03-30T06:38:45.176Z,12.67
2023-03-30T06:41:12.961Z,12.60
2023-03-30T06:43:40.678Z,12.45
2023-03-30T06:46:08.667Z,12.45
2023-03-30T06:48:36.829Z,12.44
2023-03-30T06:51:05.596Z,12.43
2023-03-30T06:53:33.408Z,12.41
2023-03-30T06:56:00.964Z,12.35
2023-03-30T06:58:28.524Z,12.41
2023-03-30T07:00:56.845Z,12.43
2023-03-30T07:03:24.529Z,12.58
2023-03-30T07:05:52.468Z,12.65
2023-03-30T07:08:20.252Z,12.77
2023-03-30T07:10:48.266Z,12.64
2023-03-30T07:13:16.953Z,12.75
2023-03-30T07:15:46.096Z,12.65
2023-03-30T07:18:14.105Z,12.68
2023-03-30T07:20:41.184Z,12.71
2023-03-30T07:23:09.045Z,12.63
2023-03-30T07:25:36.390Z,12.59
2023-03-30T07:28:06.315Z,12.82
2023-03-30T07:30:34.809Z,12.76
2023-03-30T07:33:03.178Z,12.62
2023-03-30T07:35:30.917Z,12.53
2023-03-30T07:38:03.413Z,12.42
2023-03-30T07:40:31.702Z,12.38
2023-03-30T07:42:59.315Z,12.44
2023-03-30T07:45:27.142Z,12.54
2023-03-30T07:47:54.604Z,12.62
2023-03-30T07:50:22.842Z,12.69
2023-03-30T07:52:52.350Z,12.61
2023-03-30T07:55:20.111Z,12.53
2023-03-30T07:57:47.435Z,12.52
2023-03-30T08:00:14.930Z,12.42
2023-03-30T08:02:42.756Z,12.41
2023-03-30T08:05:11.374Z,12.41
2023-03-30T08:07:38.954Z,12.44
2023-03-30T08:10:08.150Z,12.49
2023-03-30T08:12:35.629Z,12.53
2023-03-30T08:15:03.871Z,12.57
2023-03-30T08:17:31.105Z,12.58
2023-03-30T08:19:58.483Z,12.61
2023-03-30T08:22:25.998Z,12.67
2023-03-30T08:24:53.388Z,12.75
2023-03-30T08:27:20.837Z,12.72
2023-03-30T08:29:48.889Z,12.72
2023-03-30T08:32:16.498Z,12.79
2023-03-30T08:34:44.786Z,12.99
2023-03-30T08:37:12.547Z,13.06
2023-03-30T08:39:39.980Z,13.02
2023-03-30T08:42:50.595Z,12.96
2023-03-30T08:45:18.771Z,12.92
2023-03-30T08:47:50.197Z,12.91
2023-03-30T08:50:31.120Z,12.90
2023-03-30T08:52:58.563Z,13.01
2023-03-30T08:55:28.597Z,13.65
2023-03-30T08:58:27.302Z,13.32
2023-03-30T09:00:54.616Z,13.45
2023-03-30T09:03:45.605Z,13.75
2023-03-30T09:06:18.082Z,14.09
2023-03-30T09:08:46.119Z,14.28
2023-03-30T09:11:19.605Z,14.47
2023-03-30T09:13:47.385Z,14.53
2023-03-30T09:16:48.743Z,14.55
2023-03-30T09:19:27.950Z,14.59
2023-03-30T09:21:57.708Z,14.61
2023-03-30T09:24:29.583Z,14.61
2023-03-30T09:27:48.070Z,14.57
2023-03-30T09:30:53.713Z,14.77
2023-03-30T09:33:52.202Z,14.87
2023-03-30T09:36:29.732Z,14.97
2023-03-30T09:38:57.242Z,14.94
2023-03-30T09:41:41.948Z,14.85
2023-03-30T09:44:23.336Z,14.86
2023-03-30T09:46:53.985Z,14.89
2023-03-30T09:49:21.380Z,14.75
2023-03-30T09:52:22.881Z,14.86
2023-03-30T09:54:50.471Z,14.86
2023-03-30T09:57:34.495Z,14.89
2023-03-30T10:00:02.298Z,14.99
2023-03-30T10:02:31.592Z,14.93
2023-03-30T10:05:02.478Z,14.88
2023-03-30T10:07:37.958Z,14.86
2023-03-30T10:10:38.627Z,14.83
2023-03-30T10:13:17.077Z,14.77
2023-03-30T10:15:49.905Z,14.75
2023-03-30T10:18:37.763Z,14.75
2023-03-30T10:21:27.890Z,14.73
2023-03-30T10:24:19.193Z,14.76
2023-03-30T10:26:47.180Z,14.81
2023-03-30T10:29:18.497Z,14.85
2023-03-30T10:31:48.686Z,14.87
2023-03-30T10:34:28.590Z,14.88
2023-03-30T10:36:56.189Z,14.93
2023-03-30T10:39:29.866Z,15.00
2023-03-30T10:41:59.969Z,15.01
2023-03-30T10:44:47.954Z,14.94
2023-03-30T10:47:39.174Z,15.21
2023-03-30T10:50:40.596Z,15.77
2023-03-30T10:53:31.562Z,15.90
2023-03-30T10:56:20.274Z,15.99
2023-03-30T10:58:53.559Z,15.73
2023-03-30T11:01:36.794Z,15.74
2023-03-30T11:04:22.659Z,16.00
2023-03-30T11:06:53.556Z,15.87
2023-03-30T11:09:28.222Z,15.78
2023-03-30T11:12:02.158Z,16.05
2023-03-30T11:14:51.925Z,15.81
2023-03-30T11:17:55.601Z,16.16
2023-03-30T11:20:27.517Z,16.41
2023-03-30T11:23:22.009Z,16.72
2023-03-30T11:26:00.458Z,16.68
2023-03-30T11:28:42.879Z,16.83
2023-03-30T11:31:42.405Z,16.80
2023-03-30T11:34:53.773Z,17.26
2023-03-30T11:37:34.066Z,16.97
2023-03-30T11:40:30.203Z,17.31
2023-03-30T11:42:57.606Z,17.19
2023-03-30T11:46:21.800Z,17.39
2023-03-30T11:49:13.471Z,17.69
2023-03-30T11:52:22.405Z,17.67
2023-03-30T11:55:08.851Z,17.71
2023-03-30T11:57:36.196Z,17.89
2023-03-30T12:00:28.272Z,17.66
2023-03-30T12:03:35.205Z,17.85
2023-03-30T12:06:16.930Z,18.03
2023-03-30T12:09:05.907Z,18.09
2023-03-30T12:11:36.107Z,18.12
2023-03-30T12:14:03.508Z,17.97
2023-03-30T12:16:40.787Z,18.15
2023-03-30T12:19:11.198Z,18.05
2023-03-30T12:22:03.017Z,18.25
2023-03-30T12:24:49.149Z,18.19
2023-03-30T12:27:16.575Z,18.40
2023-03-30T12:32:29.349Z,18.76
2023-03-30T12:34:58.605Z,18.92
2023-03-30T12:37:38.152Z,18.97
2023-03-30T12:40:22.412Z,18.99
2023-03-30T12:43:15.121Z,18.49
2023-03-30T12:46:14.124Z,17.14
2023-03-30T12:48:54.724Z,17.56
2023-03-30T12:51:47.779Z,18.28
2023-03-30T12:54:54.482Z,18.34
2023-03-30T12:57:33.203Z,18.19
2023-03-30T13:00:48.057Z,18.21
2023-03-30T13:03:36.824Z,18.50
2023-03-30T13:08:41.906Z,18.75
2023-03-30T13:11:22.507Z,18.96
2023-03-30T13:13:57.508Z,18.97
2023-03-30T13:16:55.520Z,19.33
2023-03-30T13:19:34.276Z,19.67
2023-03-30T13:22:13.671Z,19.09
2023-03-30T13:25:12.497Z,19.43
2023-03-30T13:27:42.151Z,19.12
2023-03-30T13:30:09.620Z,19.53
2023-03-30T13:33:04.904Z,18.85
2023-03-30T13:35:57.382Z,19.09
2023-03-30T13:38:50.399Z,19.03
2023-03-30T13:41:34.797Z,18.95
2023-03-30T13:44:37.651Z,19.48
2023-03-30T13:47:05.064Z,19.32
2023-03-30T13:49:54.355Z,18.86
2023-03-30T13:52:33.579Z,19.18
2023-03-30T13:55:03.380Z,18.83
2023-03-30T13:57:38.325Z,19.52
2023-03-30T14:00:48.904Z,18.51
2023-03-30T14:03:46.632Z,18.29
2023-03-30T14:06:17.666Z,18.00
2023-03-30T14:08:48.419Z,18.30
2023-03-30T14:11:19.667Z,18.01
2023-03-30T14:13:52.503Z,18.23
2023-03-30T14:16:35.305Z,18.63
2023-03-30T14:19:25.494Z,19.07
2023-03-30T14:22:14.201Z,19.20
2023-03-30T14:25:01.230Z,18.95
2023-03-30T14:27:38.989Z,18.53
2023-03-30T14:30:24.826Z,18.50
2023-03-30T14:33:08.230Z,18.88
2023-03-30T14:35:42.392Z,18.54
2023-03-30T14:38:40.118Z,18.70
2023-03-30T14:41:27.463Z,18.68
2023-03-30T14:43:57.608Z,18.91
2023-03-30T14:46:38.360Z,18.54
2023-03-30T14:49:08.598Z,18.48
2023-03-30T14:51:43.184Z,18.61
2023-03-30T14:54:18.708Z,18.30
2023-03-30T14:57:03.911Z,18.37
2023-03-30T14:59:34.626Z,18.69
2023-03-30T15:02:02.466Z,18.63
2023-03-30T15:04:34.750Z,18.96
2023-03-30T15:07:02.190Z,18.60
2023-03-30T15:09:39.210Z,18.52
2023-03-30T15:12:07.130Z,18.44
2023-03-30T15:14:41.978Z,18.47
2023-03-30T15:17:16.632Z,18.53
2023-03-30T15:19:54.318Z,18.54
2023-03-30T15:22:46.686Z,18.87
2023-03-30T15:25:31.494Z,18.93
2023-03-30T15:28:07.773Z,18.68
2023-03-30T15:30:44.361Z,18.60
2023-03-30T15:33:38.695Z,18.21
2023-03-30T15:36:12.853Z,17.95
2023-03-30T15:38:56.723Z,17.81
2023-03-30T15:41:44.860Z,18.13
2023-03-30T15:44:22.881Z,18.39
2023-03-30T15:46:52.887Z,18.42
2023-03-30T15:49:24.831Z,18.02
2023-03-30T15:51:58.670Z,18.51
2023-03-30T15:54:27.355Z,18.37
2023-03-30T15:57:13.229Z,18.14
2023-03-30T15:59:52.507Z,18.42
2023-03-30T16:02:25.386Z,18.22
2023-03-30T16:04:54.468Z,17.85
2023-03-30T16:07:24.920Z,17.41
2023-03-30T16:09:53.075Z,17.30
2023-03-30T16:12:25.758Z,17.11
2023-03-30T16:14:53.674Z,16.88
2023-03-30T16:17:21.270Z,16.78
2023-03-30T16:19:48.675Z,16.71
2023-03-30T16:22:16.439Z,16.62
2023-03-30T16:24:43.870Z,16.68
2023-03-30T16:27:12.285Z,16.58
2023-03-30T16:29:40.070Z,16.55
2023-03-30T16:32:07.904Z,16.62
2023-03-30T16:34:35.352Z,16.54
2023-03-30T16:37:03.737Z,16.48
2023-03-30T16:39:31.355Z,16.52
2023-03-30T16:41:58.737Z,16.50
2023-03-30T16:44:26.333Z,16.34
2023-03-30T16:46:53.884Z,16.28
2023-03-30T16:49:24.732Z,16.25
2023-03-30T16:51:55.250Z,16.12
2023-03-30T16:54:32.179Z,16.08
2023-03-30T16:57:01.561Z,16.10
2023-03-30T16:59:32.761Z,16.03
2023-03-30T17:02:00.724Z,15.97
2023-03-30T17:04:28.411Z,15.92
2023-03-30T17:06:55.804Z,15.83
2023-03-30T17:09:23.456Z,15.44
2023-03-30T17:11:50.857Z,15.22
2023-03-30T17:14:20.420Z,14.93
2023-03-30T17:16:47.838Z,15.11
2023-03-30T17:19:17.813Z,14.98
2023-03-30T17:21:46.103Z,14.94
2023-03-30T17:24:15.316Z,14.76
2023-03-30T17:26:42.940Z,14.73
2023-03-30T17:29:10.884Z,14.79
2023-03-30T17:31:38.796Z,14.69
2023-03-30T17:34:07.574Z,14.70
2023-03-30T17:36:35.061Z,14.52
2023-03-30T17:39:05.693Z,14.51
2023-03-30T17:41:36.239Z,14.48
2023-03-30T17:44:03.564Z,14.44
2023-03-30T17:46:31.183Z,14.38
2023-03-30T17:48:59.952Z,14.24
2023-03-30T17:51:27.460Z,14.24
2023-03-30T17:53:54.859Z,13.93
2023-03-30T17:56:22.410Z,14.01
2023-03-30T17:58:49.856Z,13.92
2023-03-30T18:01:17.256Z,13.85
2023-03-30T18:03:45.198Z,14.04
2023-03-30T18:06:13.372Z,14.06
2023-03-30T18:08:43.027Z,14.01
2023-03-30T18:11:10.518Z,14.00
2023-03-30T18:13:38.112Z,13.96
2023-03-30T18:16:06.128Z,14.07
2023-03-30T18:18:33.571Z,13.99
2023-03-30T18:21:03.451Z,13.81
2023-03-30T18:23:34.127Z,14.05
2023-03-30T18:26:03.807Z,13.82
2023-03-30T18:28:31.773Z,13.84
2023-03-30T18:31:00.878Z,13.67
2023-03-30T18:33:28.799Z,13.69
2023-03-30T18:36:04.984Z,13.62
2023-03-30T18:38:33.630Z,13.55
2023-03-30T18:41:01.588Z,13.62
2023-03-30T18:43:29.254Z,13.40
2023-03-30T18:46:02.846Z,13.26
2023-03-30T18:48:30.686Z,13.32
2023-03-30T18:50:58.266Z,13.14
2023-03-30T18:53:28.998Z,12.87
2023-03-30T18:56:00.516Z,12.56
2023-03-30T18:58:33.428Z,12.62
2023-03-30T19:01:01.498Z,12.59
2023-03-30T19:03:30.101Z,12.33
2023-03-30T19:05:57.751Z,12.09
2023-03-30T19:08:26.793Z,11.81
2023-03-30T19:10:57.109Z,11.67
2023-03-30T19:13:26.793Z,11.57
2023-03-30T19:15:54.821Z,11.57
2023-03-30T19:18:22.800Z,11.50
2023-03-30T19:20:51.346Z,11.44
2023-03-30T19:23:19.627Z,11.53
2023-03-30T19:25:48.781Z,11.51
2023-03-30T19:28:16.360Z,11.58
2023-03-30T19:30:43.834Z,11.60
2023-03-30T19:33:16.516Z,11.64
2023-03-30T19:35:45.382Z,11.62
2023-03-30T19:38:13.256Z,11.60
2023-03-30T19:40:41.349Z,11.70
2023-03-30T19:43:09.836Z,11.70
2023-03-30T19:45:37.321Z,11.73
2023-03-30T19:48:05.043Z,11.70
2023-03-30T19:50:32.518Z,11.69
2023-03-30T19:53:00.197Z,11.61
2023-03-30T19:55:27.688Z,11.54
2023-03-30T19:57:55.276Z,11.44
2023-03-30T20:00:22.802Z,11.39
2023-03-30T20:02:53.002Z,11.42
2023-03-30T20:05:23.167Z,11.42
2023-03-30T20:07:51.252Z,11.42
2023-03-30T20:10:22.301Z,11.42
2023-03-30T20:12:50.027Z,11.46
2023-03-30T20:15:19.467Z,11.51
2023-03-30T20:17:47.007Z,11.54
2023-03-30T20:20:25.061Z,11.35
2023-03-30T20:22:55.761Z,11.22
2023-03-30T20:25:23.292Z,11.24
2023-03-30T20:27:50.634Z,11.37
2023-03-30T20:30:18.883Z,11.42
2023-03-30T20:32:56.007Z,11.43
2023-03-30T20:35:32.118Z,11.32
2023-03-30T20:37:59.605Z,11.19
2023-03-30T20:40:27.299Z,11.00
2023-03-30T20:43:02.018Z,11.01
2023-03-30T20:45:31.951Z,11.09
2023-03-30T20:48:06.146Z,11.17
2023-03-30T20:50:33.958Z,11.37
2023-03-30T20:53:01.588Z,11.55
2023-03-30T20:55:29.072Z,11.62
2023-03-30T20:57:56.442Z,11.68
2023-03-30T21:00:24.235Z,11.79
2023-03-30T21:02:51.583Z,11.81
2023-03-30T21:05:19.003Z,11.88
2023-03-30T21:07:47.085Z,11.90
2023-03-30T21:10:16.340Z,11.92
2023-03-30T21:12:43.725Z,11.91
2023-03-30T21:15:11.540Z,11.99
2023-03-30T21:17:38.895Z,11.98
2023-03-30T21:20:09.324Z,11.93
2023-03-30T21:22:36.796Z,11.95
2023-03-30T21:25:03.974Z,11.61
2023-03-30T21:27:31.561Z,11.35
2023-03-30T21:29:58.938Z,11.31
2023-03-30T21:32:26.344Z,11.17
2023-03-30T21:34:53.777Z,11.06
2023-03-30T21:37:21.101Z,11.02
2023-03-30T21:39:49.330Z,11.01
2023-03-30T21:42:18.067Z,11.01
2023-03-30T21:44:45.440Z,11.28
2023-03-30T21:47:16.451Z,11.38
2023-03-30T21:49:44.043Z,11.35
2023-03-30T21:52:11.948Z,11.31
2023-03-30T21:54:39.513Z,11.31
2023-03-30T21:57:06.906Z,11.22
2023-03-30T21:59:34.298Z,11.16
2023-03-30T22:02:01.689Z,11.13
2023-03-30T22:04:29.119Z,11.08
2023-03-30T22:06:56.467Z,11.07
2023-03-30T22:09:23.776Z,11.13
2023-03-30T22:11:53.101Z,11.20
2023-03-30T22:14:20.609Z,11.16
2023-03-30T22:16:47.760Z,11.16
2023-03-30T22:19:15.147Z,11.17
2023-03-30T22:21:42.503Z,11.19
2023-03-30T22:24:11.982Z,11.23
2023-03-30T22:26:39.427Z,11.16
2023-03-30T22:29:07.050Z,11.15
2023-03-30T22:31:34.750Z,11.15
2023-03-30T22:34:02.091Z,11.16
2023-03-30T22:36:31.043Z,11.15
2023-03-30T22:39:00.673Z,11.24
2023-03-30T22:41:28.646Z,11.29
2023-03-30T22:43:59.246Z,11.30
2023-03-30T22:46:27.735Z,11.31
2023-03-30T22:48:58.352Z,11.33
2023-03-30T22:51:26.696Z,11.34
2023-03-30T22:53:58.247Z,11.42
2023-03-30T22:56:27.409Z,11.35
2023-03-30T22:58:54.871Z,11.32
2023-03-30T23:01:22.468Z,11.30
2023-03-30T23:03:50.592Z,11.27
2023-03-30T23:06:19.244Z,11.27
2023-03-30T23:08:48.624Z,11.22
2023-03-30T23:11:16.617Z,11.24
2023-03-30T23:13:44.138Z,11.24
2023-03-30T23:16:11.542Z,11.32
2023-03-30T23:18:39.581Z,11.39
2023-03-30T23:21:08.346Z,11.39
2023-03-30T23:23:36.735Z,11.40
2023-03-30T23:26:09.023Z,11.34
2023-03-30T23:28:42.136Z,11.33
2023-03-30T23:31:15.824Z,11.33
2023-03-30T23:33:44.326Z,11.35
2023-03-30T23:36:13.790Z,11.39
2023-03-30T23:38:41.740Z,11.32
2023-03-30T23:41:09.437Z,11.37
2023-03-30T23:43:36.947Z,11.44
2023-03-30T23:46:04.874Z,11.39
2023-03-30T23:48:32.821Z,11.37
2023-03-30T23:51:00.520Z,11.43
2023-03-30T23:53:27.935Z,11.42
2023-03-30T23:55:55.497Z,11.47
2023-03-30T23:58:23.024Z,11.52
